Kake, AK

3:55 AM AKDT on April 19, 2018 (GMT -0800)
Kake

Weather History for PAFE - May, 2013

Change the Weather History Date:

Monday, May 13, 2013

  Actual Average Record
Temperature  
Mean Temperature 48 °F -  
Max Temperature 51 °F 50 °F 75 °F (2016)
Min Temperature 46 °F 36 °F 30 °F (2006)
Degree Days  
Heating Degree Days 16    
Moisture  
Dew Point 44 °F    
Average Humidity 87    
Maximum Humidity 93    
Minimum Humidity 76    
Precipitation  
Precipitation 0.40 in - - ()
Sea Level Pressure  
Sea Level Pressure 29.69 in    
Wind  
Wind Speed 9 mph (SE)    
Max Wind Speed 20 mph    
Max Gust Speed 26 mph    
Visibility 9 miles    
Events      
Averages and records for this station are not official NWS values.
T = Trace of Precipitation, MM = Missing Value Source: NWS Daily Summary

Daily Weather History Graph

Daily Weather History Graph

Search for Another Location

Airport or City:

Astronomy

May. 13, 2013 Rise Set
Actual Time 4:40 AM AKDT 9:04 PM AKDT
Civil Twilight 3:48 AM AKDT 9:56 PM AKDT
Nautical Twilight 2:26 AM AKDT 11:21 PM AKDT
Astronomical Twilight Sun does not set Sun does not set
Moon 7:29 AM AKDT (5/13) No Moon Set
Length of Visible Light 18h 07m
Length of Day
16h 24m
Waxing Crescent, 13% of the Moon is Illuminated
May 13
Waxing Crescent
May 17
First Quarter
May 24
Full
May 31
Last Quarter
Jun 8
New

Hourly Weather History & Observations

Time (AKDT) Temp. Windchill Dew Point Humidity Pressure Visibility Wind Dir Wind Speed Gust Speed Precip Events Conditions
12:16 AM 48.2 °F - 46.4 °F 93% 29.64 in 8.0 mi SE 4.6 mph - 0.01 in   Overcast
12:36 AM 48.2 °F - 46.4 °F 93% 29.64 in 10.0 mi ESE 8.1 mph - 0.03 in   Mostly Cloudy
12:56 AM 48.2 °F - 46.4 °F 93% 29.64 in 9.0 mi ESE 4.6 mph - 0.06 in   Overcast
1:16 AM 48.2 °F - 44.6 °F 87% 29.64 in 8.0 mi SE 4.6 mph - 0.03 in   Overcast
1:36 AM 48.2 °F - 44.6 °F 87% 29.64 in 8.0 mi SSE 4.6 mph - 0.06 in   Overcast
1:56 AM 48.2 °F - 46.4 °F 93% 29.64 in 6.0 mi SE 4.6 mph - 0.09 in   Overcast
2:16 AM 48.2 °F - 44.6 °F 87% 29.63 in 7.0 mi SE 4.6 mph - 0.02 in   Overcast
2:36 AM 48.2 °F - 46.4 °F 93% 29.63 in 9.0 mi ESE 4.6 mph - 0.03 in   Overcast
2:56 AM 48.2 °F - 46.4 °F 93% 29.63 in 8.0 mi East 6.9 mph - 0.04 in   Overcast
3:16 AM 48.2 °F - 46.4 °F 93% 29.63 in 4.0 mi East 5.8 mph - 0.02 in   Overcast
3:36 AM 48.2 °F - 44.6 °F 87% 29.63 in 10.0 mi SSE 4.6 mph - 0.03 in   Overcast
3:56 AM 48.2 °F - 46.4 °F 93% 29.63 in 5.0 mi SE 6.9 mph - 0.05 in   Overcast
4:16 AM 48.2 °F - 46.4 °F 93% 29.63 in 5.0 mi SE 6.9 mph - N/A   Overcast
4:36 AM 48.2 °F - 44.6 °F 87% 29.63 in 7.0 mi ESE 6.9 mph - 0.01 in   Overcast
4:56 AM 48.2 °F - 46.4 °F 93% 29.62 in 7.0 mi ESE 9.2 mph - 0.01 in   Overcast
5:16 AM 48.2 °F - 44.6 °F 87% 29.63 in 5.0 mi ESE 9.2 mph - 0.01 in   Overcast
5:36 AM 48.2 °F - 44.6 °F 87% 29.63 in 7.0 mi SE 12.7 mph - 0.01 in   Overcast
5:56 AM 48.2 °F - 44.6 °F 87% 29.64 in 10.0 mi SE 10.4 mph 16.1 mph 0.02 in   Overcast
6:16 AM 48.2 °F - 44.6 °F 87% 29.65 in 10.0 mi SSE 15.0 mph 25.3 mph N/A   Overcast
6:36 AM 48.2 °F - 44.6 °F 87% 29.66 in 10.0 mi SE 18.4 mph 25.3 mph N/A   Overcast
6:56 AM 48.2 °F - 42.8 °F 82% 29.66 in 10.0 mi SE 17.3 mph 24.2 mph N/A   Overcast
7:16 AM 46.4 °F 39.0 °F 42.8 °F 87% 29.67 in 10.0 mi SE 19.6 mph 26.5 mph N/A   Mostly Cloudy
7:36 AM 46.4 °F 39.2 °F 42.8 °F 87% 29.69 in 10.0 mi SE 18.4 mph 24.2 mph N/A   Overcast
7:56 AM 46.4 °F 40.4 °F 42.8 °F 87% 29.70 in 10.0 mi SE 13.8 mph 23.0 mph N/A   Overcast
8:16 AM 46.4 °F 40.1 °F 42.8 °F 87% 29.71 in 10.0 mi SSE 15.0 mph 20.7 mph N/A   Overcast
8:36 AM 46.4 °F 40.4 °F 42.8 °F 87% 29.71 in 10.0 mi SE 13.8 mph 17.3 mph N/A   Overcast
8:56 AM 46.4 °F 40.7 °F 42.8 °F 87% 29.72 in 10.0 mi SE 12.7 mph 19.6 mph N/A   Overcast
9:16 AM 46.4 °F 41.9 °F 42.8 °F 87% 29.73 in 10.0 mi SE 9.2 mph 18.4 mph N/A   Overcast
9:36 AM 46.4 °F 41.1 °F 42.8 °F 87% 29.73 in 10.0 mi SSE 11.5 mph 19.6 mph N/A   Overcast
9:56 AM 46.4 °F 42.4 °F 42.8 °F 87% 29.73 in 10.0 mi SE 8.1 mph - N/A   Overcast
10:16 AM 48.2 °F - 42.8 °F 82% 29.73 in 10.0 mi SE 10.4 mph - N/A   Overcast
10:36 AM 48.2 °F - 42.8 °F 82% 29.72 in 10.0 mi SSE 6.9 mph - N/A   Overcast
10:56 AM 48.2 °F - 44.6 °F 87% 29.73 in 10.0 mi SSE 9.2 mph - N/A   Overcast
11:16 AM 48.2 °F - 42.8 °F 82% 29.73 in 10.0 mi SSE 8.1 mph - N/A   Overcast
11:36 AM 48.2 °F - 42.8 °F 82% 29.72 in 10.0 mi SSE 10.4 mph - N/A   Overcast
12:36 PM 50.0 °F - 44.6 °F 82% 29.72 in 10.0 mi SE 15.0 mph - N/A   Overcast
12:56 PM 50.0 °F - 44.6 °F 82% 29.72 in 10.0 mi SE 13.8 mph 19.6 mph N/A   Overcast
1:16 PM 50.0 °F - 44.6 °F 82% 29.72 in 10.0 mi SSE 10.4 mph 18.4 mph N/A   Overcast
1:36 PM 51.8 °F - 44.6 °F 76% 29.72 in 10.0 mi SE 10.4 mph 18.4 mph N/A   Overcast
1:56 PM 51.8 °F - 44.6 °F 76% 29.71 in 10.0 mi SSE 8.1 mph 16.1 mph N/A   Mostly Cloudy
2:16 PM 51.8 °F - 44.6 °F 76% 29.71 in 10.0 mi SSE 8.1 mph - N/A   Mostly Cloudy
2:36 PM 51.8 °F - 44.6 °F 76% 29.71 in 10.0 mi SSE 12.7 mph 16.1 mph N/A   Mostly Cloudy
2:56 PM 51.8 °F - 44.6 °F 76% 29.71 in 10.0 mi SSE 10.4 mph - N/A   Mostly Cloudy
3:36 PM 50.0 °F - 44.6 °F 82% 29.71 in 10.0 mi SE 8.1 mph - 0.01 in   Overcast
4:16 PM 48.2 °F - 44.6 °F 87% 29.71 in 10.0 mi SSE 8.1 mph - 0.01 in   Overcast
4:36 PM 48.2 °F - 44.6 °F 87% 29.70 in 10.0 mi South 5.8 mph - 0.03 in   Overcast
4:56 PM 48.2 °F - 44.6 °F 87% 29.69 in 10.0 mi SSE 9.2 mph - 0.03 in   Overcast
5:16 PM 48.2 °F - 44.6 °F 87% 29.69 in 10.0 mi SE 9.2 mph - N/A   Overcast
5:36 PM 48.2 °F - 44.6 °F 87% 29.69 in 10.0 mi SE 9.2 mph - 0.01 in   Overcast
5:56 PM 48.2 °F - 44.6 °F 87% 29.69 in 7.0 mi SE 12.7 mph - 0.02 in   Overcast
6:16 PM 48.2 °F - 44.6 °F 87% 29.69 in 10.0 mi SE 11.5 mph 19.6 mph 0.02 in   Overcast
6:36 PM 48.2 °F - 44.6 °F 87% 29.70 in 9.0 mi ESE 12.7 mph - 0.05 in   Overcast
6:56 PM 48.2 °F - 44.6 °F 87% 29.69 in 8.0 mi SE 9.2 mph - 0.06 in   Overcast
7:16 PM 48.2 °F - 44.6 °F 87% 29.69 in 10.0 mi ESE 10.4 mph - N/A   Overcast
7:36 PM 48.2 °F - 44.6 °F 87% 29.69 in 10.0 mi ESE 9.2 mph - N/A   Overcast
7:56 PM 48.2 °F - 44.6 °F 87% 29.70 in 7.0 mi ESE 9.2 mph 16.1 mph N/A   Overcast
8:16 PM 48.2 °F - 44.6 °F 87% 29.70 in 10.0 mi ESE 12.7 mph 16.1 mph 0.01 in   Mostly Cloudy
8:36 PM 46.4 °F 41.9 °F 44.6 °F 93% 29.71 in 10.0 mi SE 9.2 mph - 0.01 in   Overcast
8:56 PM 48.2 °F - 44.6 °F 87% 29.71 in 10.0 mi SE 6.9 mph - 0.01 in   Overcast
9:16 PM 46.4 °F 41.1 °F 42.8 °F 87% 29.72 in 10.0 mi ESE 11.5 mph - N/A   Overcast
9:36 PM 46.4 °F 41.9 °F 42.8 °F 87% 29.73 in 10.0 mi SE 9.2 mph - N/A   Overcast
9:56 PM 46.4 °F 42.4 °F 42.8 °F 87% 29.74 in 10.0 mi SE 8.1 mph - N/A   Overcast
10:16 PM 46.4 °F 42.9 °F 42.8 °F 87% 29.74 in 10.0 mi SE 6.9 mph - N/A   Overcast
10:36 PM 46.4 °F 42.4 °F 42.8 °F 87% 29.74 in 10.0 mi SE 8.1 mph - N/A   Overcast
10:56 PM 46.4 °F 41.5 °F 42.8 °F 87% 29.75 in 10.0 mi SE 10.4 mph - N/A   Overcast
11:16 PM 46.4 °F 41.9 °F 42.8 °F 87% 29.75 in 10.0 mi SE 9.2 mph - N/A   Overcast
11:36 PM 46.4 °F 41.5 °F 42.8 °F 87% 29.76 in 10.0 mi SE 10.4 mph 17.3 mph N/A   Overcast
11:56 PM 46.4 °F 41.9 °F 42.8 °F 87% 29.77 in 10.0 mi SE 9.2 mph 16.1 mph N/A   Overcast